Dera Bugti Weather



Dera Bugti's Current Weather

Temprature 20.574o clear sky

clear sky

Rain: 0 %

Min Temprature20.574o
Max Temprature20.574o
Humidity50
Wind Speed2.51 m/h
Sun Rise06:54:57
Sun Set18:18:56
Current Time: 23-Feb-2019 15:50:14
Lat/Lon: 29.03, 69.15




Dera Bugti's Geo Location




Dera Bugti's Weather Forecast

Time Overall Temp Min Temp Max Temp Humidity Wind Speed Rain
23-Feb-2019 (Sat)
17:00:00 clear sky 20.320 20.320 20.574 50 2.51 m/h 0 %
20:00:00 clear sky 14.570 14.570 14.759 70 1.57 m/h 0 %
23:00:00 clear sky 11.690 11.690 11.815 84 1.42 m/h 0 %
24-Feb-2019 (Sun)
02:00:00 clear sky 10.550 10.550 10.610 82 2.06 m/h 0 %
05:00:00 few clouds 9.517 9.517 9.517 86 1.61 m/h 0 %
08:00:00 scattered clouds 10.253 10.253 10.253 84 1.11 m/h 0 %
11:00:00 broken clouds 18.949 18.949 18.949 71 1.81 m/h 0 %
14:00:00 broken clouds 20.906 20.906 20.906 61 1.87 m/h 0 %
17:00:00 broken clouds 20.071 20.071 20.071 52 1.2 m/h 0 %
20:00:00 clear sky 14.368 14.368 14.368 51 2.11 m/h 0 %
23:00:00 clear sky 11.161 11.161 11.161 57 2.61 m/h 0 %
25-Feb-2019 (Mon)
02:00:00 clear sky 10.630 10.630 10.630 52 3.52 m/h 0 %
05:00:00 broken clouds 10.877 10.877 10.877 54 3.21 m/h 0 %
08:00:00 clear sky 10.595 10.595 10.595 55 1.37 m/h 0 %
11:00:00 clear sky 18.172 18.172 18.172 64 1.16 m/h 0 %
14:00:00 clear sky 20.373 20.373 20.373 55 1.22 m/h 0 %
17:00:00 clear sky 19.862 19.862 19.862 41 1.66 m/h 0 %
20:00:00 few clouds 13.723 13.723 13.723 48 1.41 m/h 0 %
23:00:00 scattered clouds 10.967 10.967 10.967 60 0.41 m/h 0 %
26-Feb-2019 (Tue)
02:00:00 few clouds 10.776 10.776 10.776 74 1.06 m/h 0 %
05:00:00 clear sky 8.097 8.097 8.097 76 0.81 m/h 0 %
08:00:00 clear sky 8.157 8.157 8.157 70 1.02 m/h 0 %
11:00:00 clear sky 16.517 16.517 16.517 67 2.42 m/h 0 %
14:00:00 clear sky 18.571 18.571 18.571 57 2.06 m/h 0 %
17:00:00 clear sky 18.139 18.139 18.139 42 3.01 m/h 0 %
20:00:00 clear sky 12.161 12.161 12.161 49 2.02 m/h 0 %
23:00:00 clear sky 8.848 8.848 8.848 63 1.47 m/h 0 %
27-Feb-2019 (Wed)
02:00:00 clear sky 7.181 7.181 7.181 64 1.96 m/h 0 %
05:00:00 clear sky 5.269 5.269 5.269 68 1.45 m/h 0 %
08:00:00 clear sky 6.190 6.190 6.190 64 1.47 m/h 0 %
11:00:00 clear sky 16.820 16.820 16.820 61 1.61 m/h 0 %
14:00:00 clear sky 19.461 19.461 19.461 51 1.85 m/h 0 %
17:00:00 few clouds 18.898 18.898 18.898 39 1.76 m/h 0 %
20:00:00 clear sky 12.842 12.842 12.842 48 1.52 m/h 0 %
23:00:00 broken clouds 10.316 10.316 10.316 57 2.07 m/h 0 %
28-Feb-2019 (Thu)
02:00:00 overcast clouds 12.141 12.141 12.141 53 3.86 m/h 0 %
05:00:00 broken clouds 12.613 12.613 12.613 54 4.51 m/h 0 %
08:00:00 broken clouds 13.265 13.265 13.265 60 4.76 m/h 0 %
11:00:00 light rain 17.122 17.122 17.122 60 3.21 m/h 14 %
14:00:00 scattered clouds 18.929 18.929 18.929 55 3.32 m/h 0 %

Famous Cities (60)